createdAt,value
2023-05-10T00:02:55.305Z,2.67
2023-05-10T00:05:59.368Z,2.22
2023-05-10T00:09:04.632Z,2.30
2023-05-10T00:12:08.609Z,2.63
2023-05-10T00:15:12.621Z,2.60
2023-05-10T00:18:16.540Z,2.10
2023-05-10T00:21:20.326Z,2.42
2023-05-10T00:24:26.207Z,2.45
2023-05-10T00:27:29.781Z,2.60
2023-05-10T00:30:33.469Z,2.47
2023-05-10T00:33:38.912Z,2.50
2023-05-10T00:36:42.799Z,3.08
2023-05-10T00:39:47.731Z,2.43
2023-05-10T00:42:51.552Z,2.92
2023-05-10T00:45:55.825Z,2.33
2023-05-10T00:49:00.130Z,2.43
2023-05-10T00:52:04.137Z,2.67
2023-05-10T00:55:13.694Z,2.20
2023-05-10T00:58:18.417Z,2.75
2023-05-10T01:01:22.278Z,2.83
2023-05-10T01:04:26.663Z,2.80
2023-05-10T01:07:30.705Z,2.90
2023-05-10T01:10:35.541Z,2.30
2023-05-10T01:13:43.764Z,2.53
2023-05-10T01:16:50.964Z,3.08
2023-05-10T01:19:54.998Z,2.83
2023-05-10T01:23:33.085Z,2.67
2023-05-10T01:27:27.449Z,2.83
2023-05-10T01:31:04.698Z,2.35
2023-05-10T01:34:18.702Z,2.28
2023-05-10T01:37:31.348Z,2.72
2023-05-10T01:40:42.809Z,2.40
2023-05-10T01:44:01.672Z,2.50
2023-05-10T01:47:13.584Z,2.55
2023-05-10T01:50:32.715Z,2.58
2023-05-10T01:53:41.186Z,2.73
2023-05-10T01:56:49.902Z,2.50
2023-05-10T01:59:55.487Z,2.85
2023-05-10T02:03:02.373Z,3.15
2023-05-10T02:06:09.950Z,2.88
2023-05-10T02:09:16.400Z,2.53
2023-05-10T02:12:22.265Z,2.78
2023-05-10T02:15:29.532Z,2.53
2023-05-10T02:18:36.923Z,2.47
2023-05-10T02:21:43.550Z,2.45
2023-05-10T02:24:50.679Z,2.47
2023-05-10T02:27:58.544Z,2.70
2023-05-10T02:31:03.198Z,2.78
2023-05-10T02:34:10.605Z,2.35
2023-05-10T02:37:19.395Z,3.20
2023-05-10T02:40:28.567Z,2.70
2023-05-10T02:43:37.309Z,2.78
2023-05-10T02:46:40.970Z,3.00
2023-05-10T02:49:45.675Z,2.78
2023-05-10T02:52:56.334Z,2.53
2023-05-10T02:56:08.166Z,3.07
2023-05-10T02:59:12.136Z,2.58
2023-05-10T03:02:17.033Z,2.92
2023-05-10T03:05:21.249Z,3.10
2023-05-10T03:08:27.273Z,2.70
2023-05-10T03:11:49.621Z,3.00
2023-05-10T03:15:05.033Z,2.45
2023-05-10T03:18:15.547Z,2.50
2023-05-10T03:21:22.342Z,2.50
2023-05-10T03:24:31.770Z,2.83
2023-05-10T03:27:41.280Z,2.60
2023-05-10T03:30:46.408Z,2.78
2023-05-10T03:33:51.310Z,2.90
2023-05-10T03:37:00.246Z,2.90
2023-05-10T03:40:12.570Z,2.63
2023-05-10T03:43:18.860Z,2.55
2023-05-10T03:46:22.732Z,3.17
2023-05-10T03:49:26.552Z,2.80
2023-05-10T03:52:30.601Z,2.67
2023-05-10T03:55:37.386Z,2.45
2023-05-10T03:58:41.205Z,2.70
2023-05-10T04:01:44.908Z,2.65
2023-05-10T04:04:49.206Z,2.58
2023-05-10T04:07:52.644Z,2.60
2023-05-10T04:11:07.612Z,2.78
2023-05-10T04:14:11.233Z,2.60
2023-05-10T04:17:14.920Z,3.20
2023-05-10T04:20:18.982Z,2.77
2023-05-10T04:23:22.788Z,2.90
2023-05-10T04:26:27.936Z,2.60
2023-05-10T04:29:32.217Z,2.60
2023-05-10T04:32:35.830Z,2.50
2023-05-10T04:35:41.007Z,2.50
2023-05-10T04:38:44.792Z,3.28
2023-05-10T04:41:49.820Z,3.10
2023-05-10T04:44:53.512Z,2.55
2023-05-10T04:47:57.365Z,2.88
2023-05-10T04:51:00.924Z,2.63
2023-05-10T04:54:06.819Z,2.60
2023-05-10T04:57:12.089Z,2.80
2023-05-10T05:00:17.229Z,2.80
2023-05-10T05:03:20.984Z,2.72
2023-05-10T05:06:25.858Z,2.60
2023-05-10T05:09:29.337Z,2.57
2023-05-10T05:12:34.488Z,2.35
2023-05-10T05:15:38.189Z,2.92
2023-05-10T05:18:41.811Z,2.55
2023-05-10T05:21:45.522Z,3.00
2023-05-10T05:24:49.271Z,2.45
2023-05-10T05:27:54.136Z,2.70
2023-05-10T05:30:57.906Z,3.07
2023-05-10T05:34:01.219Z,2.63
2023-05-10T05:37:04.933Z,2.65
2023-05-10T05:40:09.954Z,2.92
2023-05-10T05:43:14.968Z,2.50
2023-05-10T05:46:18.393Z,2.65
2023-05-10T05:49:22.421Z,2.65
2023-05-10T05:52:26.051Z,2.70
2023-05-10T05:55:30.563Z,2.67
2023-05-10T05:58:35.552Z,2.42
2023-05-10T06:01:39.016Z,2.20
2023-05-10T06:04:44.711Z,2.83
2023-05-10T06:07:48.495Z,2.20
2023-05-10T06:10:52.112Z,2.92
2023-05-10T06:13:57.267Z,2.20
2023-05-10T06:17:01.140Z,2.72
2023-05-10T06:20:06.202Z,2.38
2023-05-10T06:23:09.869Z,2.17
2023-05-10T06:26:14.734Z,2.72
2023-05-10T06:29:19.826Z,2.70
2023-05-10T06:32:23.418Z,5.90
2023-05-10T06:35:27.195Z,2.55
2023-05-10T06:38:31.094Z,2.72
2023-05-10T06:41:34.765Z,2.72
2023-05-10T06:44:39.864Z,2.90
2023-05-10T06:47:43.916Z,2.55
2023-05-10T06:50:47.700Z,2.40
2023-05-10T06:53:51.297Z,2.63
2023-05-10T06:56:54.928Z,2.97
2023-05-10T07:00:00.374Z,2.50
2023-05-10T07:03:03.761Z,2.40
2023-05-10T07:06:13.313Z,2.55
2023-05-10T07:09:22.155Z,2.78
2023-05-10T07:12:26.019Z,2.90
2023-05-10T07:15:30.925Z,2.53
2023-05-10T07:18:35.003Z,2.58
2023-05-10T07:21:38.892Z,2.65
2023-05-10T07:24:42.806Z,3.13
2023-05-10T07:27:46.162Z,4.22
2023-05-10T07:30:51.226Z,2.45
2023-05-10T07:33:54.833Z,2.27
2023-05-10T07:37:01.531Z,2.70
2023-05-10T07:40:05.570Z,3.03
2023-05-10T07:43:09.224Z,2.70
2023-05-10T07:46:14.061Z,2.15
2023-05-10T07:49:18.086Z,3.50
2023-05-10T07:52:22.636Z,2.40
2023-05-10T07:55:27.161Z,2.27
2023-05-10T07:58:31.111Z,2.28
2023-05-10T08:01:37.047Z,2.58
2023-05-10T08:04:40.426Z,2.87
2023-05-10T08:07:44.136Z,4.22
2023-05-10T08:10:47.625Z,2.25
2023-05-10T08:13:53.769Z,2.10
2023-05-10T08:16:58.616Z,2.08
2023-05-10T08:20:02.430Z,2.05
2023-05-10T08:23:06.052Z,1.90
2023-05-10T08:26:09.705Z,1.80
2023-05-10T08:29:13.078Z,2.03
2023-05-10T08:32:18.326Z,2.22
2023-05-10T08:35:21.677Z,2.30
2023-05-10T08:38:25.813Z,1.60
2023-05-10T08:41:30.608Z,1.58
2023-05-10T08:44:37.268Z,2.45
2023-05-10T08:47:43.251Z,1.90
2023-05-10T08:50:49.732Z,1.65
2023-05-10T08:53:53.731Z,1.52
2023-05-10T08:56:58.123Z,1.60
2023-05-10T09:00:03.514Z,1.40
2023-05-10T09:03:08.569Z,2.08
2023-05-10T09:06:15.264Z,1.80
2023-05-10T09:09:20.089Z,1.67
2023-05-10T09:12:23.654Z,1.80
2023-05-10T09:15:28.060Z,1.20
2023-05-10T09:18:33.062Z,1.58
2023-05-10T09:21:39.162Z,2.85
2023-05-10T09:24:46.208Z,2.13
2023-05-10T09:27:51.262Z,1.30
2023-05-10T09:30:56.569Z,1.70
2023-05-10T09:34:01.744Z,1.90
2023-05-10T09:37:05.634Z,1.63
2023-05-10T09:40:14.705Z,1.45
2023-05-10T09:43:18.242Z,1.63
2023-05-10T09:46:21.870Z,1.38
2023-05-10T09:49:26.890Z,1.70
2023-05-10T09:52:30.585Z,2.83
2023-05-10T09:55:43.830Z,2.13
2023-05-10T09:58:47.631Z,1.50
2023-05-10T10:01:54.892Z,4.30
2023-05-10T10:05:02.963Z,1.60
2023-05-10T10:08:07.767Z,1.20
2023-05-10T10:11:11.468Z,1.33
2023-05-10T10:14:15.209Z,1.45
2023-05-10T10:17:22.021Z,1.58
2023-05-10T10:20:28.246Z,1.60
2023-05-10T10:23:32.038Z,1.45
2023-05-10T10:26:39.275Z,1.38
2023-05-10T10:30:00.744Z,2.40
2023-05-10T10:33:32.930Z,1.20
2023-05-10T10:36:47.074Z,1.25
2023-05-10T10:39:51.598Z,1.38
2023-05-10T10:42:56.150Z,1.60
2023-05-10T10:46:15.325Z,1.60
2023-05-10T10:49:19.042Z,1.35
2023-05-10T10:52:30.970Z,1.25
2023-05-10T10:55:34.719Z,1.23
2023-05-10T10:58:40.066Z,1.48
2023-05-10T11:01:45.491Z,1.20
2023-05-10T11:04:49.064Z,1.30
2023-05-10T11:07:59.820Z,1.40
2023-05-10T11:11:09.115Z,1.40
2023-05-10T11:14:13.130Z,1.42
2023-05-10T11:17:27.326Z,1.40
2023-05-10T11:20:40.958Z,1.47
2023-05-10T11:23:57.065Z,1.15
2023-05-10T11:27:01.840Z,1.70
2023-05-10T11:30:08.718Z,1.52
2023-05-10T11:33:18.012Z,2.03
2023-05-10T11:36:24.010Z,1.90
2023-05-10T11:39:31.912Z,1.60
2023-05-10T11:42:35.553Z,1.67
2023-05-10T11:45:40.055Z,1.27
2023-05-10T11:48:45.087Z,1.42
2023-05-10T11:51:48.722Z,1.60
2023-05-10T11:54:56.572Z,1.48
2023-05-10T11:58:04.691Z,1.42
2023-05-10T12:01:11.751Z,1.33
2023-05-10T12:04:15.893Z,1.27
2023-05-10T12:07:20.052Z,1.77
2023-05-10T12:10:29.305Z,1.38
2023-05-10T12:13:32.964Z,1.30
2023-05-10T12:16:37.814Z,1.30
2023-05-10T12:19:41.891Z,1.38
2023-05-10T12:22:51.943Z,1.33
2023-05-10T12:26:05.882Z,1.17
2023-05-10T12:29:18.527Z,1.40
2023-05-10T12:32:21.929Z,1.60
2023-05-10T12:35:25.872Z,1.30
2023-05-10T12:38:31.943Z,1.38
2023-05-10T12:41:37.161Z,1.10
2023-05-10T12:44:41.390Z,1.30
2023-05-10T12:47:45.164Z,1.17
2023-05-10T12:50:49.157Z,1.70
2023-05-10T12:53:52.851Z,1.30
2023-05-10T12:56:57.646Z,1.30
2023-05-10T13:00:01.467Z,1.40
2023-05-10T13:03:06.169Z,1.30
2023-05-10T13:06:09.911Z,1.30
2023-05-10T13:09:13.233Z,1.10
2023-05-10T13:12:18.387Z,1.20
2023-05-10T13:15:21.802Z,1.20
2023-05-10T13:18:27.343Z,1.42
2023-05-10T13:21:31.424Z,1.30
2023-05-10T13:24:35.137Z,1.25
2023-05-10T13:27:39.895Z,1.03
2023-05-10T13:30:43.648Z,1.00
2023-05-10T13:33:47.138Z,1.30
2023-05-10T13:36:51.212Z,1.40
2023-05-10T13:39:54.617Z,1.83
2023-05-10T13:42:59.820Z,1.60
2023-05-10T13:46:03.680Z,2.08
2023-05-10T13:49:07.568Z,1.65
2023-05-10T13:52:11.167Z,1.20
2023-05-10T13:56:10.332Z,1.20
2023-05-10T13:59:34.073Z,1.20
2023-05-10T14:02:37.829Z,1.02
2023-05-10T14:05:41.556Z,1.95
2023-05-10T14:08:44.931Z,1.10
2023-05-10T14:11:48.823Z,1.00
2023-05-10T14:14:54.297Z,0.87
2023-05-10T14:17:57.989Z,1.30
2023-05-10T14:21:01.459Z,1.17
2023-05-10T14:24:05.545Z,2.08
2023-05-10T14:27:09.005Z,1.00
2023-05-10T14:30:15.902Z,1.40
2023-05-10T14:33:20.186Z,0.95
2023-05-10T14:36:23.834Z,1.15
2023-05-10T14:39:30.465Z,1.10
2023-05-10T14:42:34.145Z,1.10
2023-05-10T14:45:39.165Z,1.43
2023-05-10T14:48:42.860Z,1.08
2023-05-10T14:51:46.894Z,1.30
2023-05-10T14:55:10.744Z,1.17
2023-05-10T14:58:14.229Z,1.38
2023-05-10T15:01:20.085Z,1.03
2023-05-10T15:04:25.067Z,1.20
2023-05-10T15:07:32.454Z,1.15
2023-05-10T15:10:36.035Z,1.10
2023-05-10T15:13:39.693Z,1.38
2023-05-10T15:16:44.516Z,1.70
2023-05-10T15:19:48.150Z,1.00
2023-05-10T15:22:51.752Z,1.15
2023-05-10T15:25:56.800Z,1.02
2023-05-10T15:29:00.348Z,1.10
2023-05-10T15:32:06.032Z,1.00
2023-05-10T15:35:11.513Z,1.20
2023-05-10T15:38:15.216Z,0.98
2023-05-10T15:41:18.702Z,1.30
2023-05-10T15:44:22.911Z,1.08
2023-05-10T15:47:28.744Z,1.27
2023-05-10T15:50:32.519Z,1.40
2023-05-10T15:53:36.094Z,1.30
2023-05-10T15:56:39.974Z,1.13
2023-05-10T15:59:43.854Z,1.10
2023-05-10T16:02:49.165Z,1.30
2023-05-10T16:05:52.682Z,1.10
2023-05-10T16:08:56.509Z,1.23
2023-05-10T16:11:59.937Z,1.15
2023-05-10T16:15:03.980Z,1.30
2023-05-10T16:18:09.069Z,1.20
2023-05-10T16:21:12.890Z,1.35
2023-05-10T16:24:16.673Z,1.20
2023-05-10T16:27:20.314Z,1.17
2023-05-10T16:30:24.437Z,1.23
2023-05-10T16:33:29.477Z,1.47
2023-05-10T16:36:33.879Z,1.52
2023-05-10T16:39:37.651Z,1.85
2023-05-10T16:42:40.994Z,1.20
2023-05-10T16:45:44.781Z,1.25
2023-05-10T16:48:49.625Z,1.60
2023-05-10T16:51:53.406Z,1.15
2023-05-10T16:54:57.382Z,1.10
2023-05-10T16:58:02.911Z,1.30
2023-05-10T17:01:07.250Z,1.60
2023-05-10T17:04:12.646Z,1.90
2023-05-10T17:07:19.016Z,1.60
2023-05-10T17:10:22.980Z,1.50
2023-05-10T17:13:26.939Z,1.60
2023-05-10T17:16:31.538Z,2.10
2023-05-10T17:19:36.952Z,1.97
2023-05-10T17:22:41.189Z,2.15
2023-05-10T17:25:45.100Z,1.65
2023-05-10T17:28:48.853Z,1.60
2023-05-10T17:31:52.709Z,1.60
2023-05-10T17:34:58.200Z,1.40
2023-05-10T17:38:01.927Z,1.65
2023-05-10T17:41:05.676Z,1.60
2023-05-10T17:44:09.453Z,1.65
2023-05-10T17:47:13.217Z,1.63
2023-05-10T17:50:18.530Z,1.60
2023-05-10T17:53:22.378Z,2.00
2023-05-10T17:56:27.156Z,2.08
2023-05-10T17:59:31.039Z,1.85
2023-05-10T18:02:35.889Z,1.63
2023-05-10T18:05:41.206Z,1.73
2023-05-10T18:08:44.672Z,1.77
2023-05-10T18:11:48.584Z,2.00
2023-05-10T18:14:52.158Z,1.95
2023-05-10T18:17:56.855Z,1.90
2023-05-10T18:21:01.838Z,1.73
2023-05-10T18:24:06.494Z,1.80
2023-05-10T18:27:10.533Z,1.88
2023-05-10T18:30:15.755Z,2.00
2023-05-10T18:33:19.504Z,2.28
2023-05-10T18:36:24.824Z,2.33
2023-05-10T18:39:28.436Z,2.28
2023-05-10T18:42:32.458Z,2.00
2023-05-10T18:45:36.182Z,2.25
2023-05-10T18:48:40.807Z,2.30
2023-05-10T18:51:45.806Z,2.28
2023-05-10T18:54:51.324Z,3.17
2023-05-10T18:57:54.836Z,2.10
2023-05-10T19:00:59.270Z,2.10
2023-05-10T19:04:03.057Z,2.20
2023-05-10T19:07:08.233Z,1.90
2023-05-10T19:10:13.785Z,2.00
2023-05-10T19:13:17.628Z,2.10
2023-05-10T19:16:23.301Z,2.08
2023-05-10T19:19:27.500Z,2.10
2023-05-10T19:22:47.127Z,1.98
2023-05-10T19:25:53.223Z,1.83
2023-05-10T19:28:57.523Z,1.90
2023-05-10T19:32:01.390Z,2.10
2023-05-10T19:35:05.727Z,2.00
2023-05-10T19:38:10.887Z,2.15
2023-05-10T19:41:14.557Z,2.20
2023-05-10T19:44:18.272Z,2.30
2023-05-10T19:47:21.887Z,2.05
2023-05-10T19:50:25.535Z,2.17
2023-05-10T19:53:31.580Z,2.20
2023-05-10T19:56:35.515Z,1.90
2023-05-10T19:59:38.904Z,2.03
2023-05-10T20:02:42.612Z,1.90
2023-05-10T20:05:46.132Z,2.10
2023-05-10T20:08:51.176Z,2.10
2023-05-10T20:11:54.642Z,2.08
2023-05-10T20:14:58.484Z,2.10
2023-05-10T20:18:03.605Z,2.38
2023-05-10T20:21:07.511Z,2.15
2023-05-10T20:24:12.400Z,2.22
2023-05-10T20:27:16.230Z,1.83
2023-05-10T20:30:20.363Z,2.17
2023-05-10T20:33:24.640Z,2.00
2023-05-10T20:36:28.783Z,2.30
2023-05-10T20:39:33.826Z,2.00
2023-05-10T20:42:37.802Z,2.65
2023-05-10T20:45:41.454Z,2.08
2023-05-10T20:48:44.986Z,1.90
2023-05-10T20:51:48.631Z,2.53
2023-05-10T20:54:53.682Z,2.05
2023-05-10T20:57:57.323Z,10.00
2023-05-10T21:01:02.532Z,11.45
2023-05-10T21:04:06.568Z,4.40
2023-05-10T21:07:09.973Z,3.00
2023-05-10T21:10:15.432Z,2.15
2023-05-10T21:13:18.943Z,1.92
2023-05-10T21:16:22.718Z,2.20
2023-05-10T21:19:26.366Z,2.25
2023-05-10T21:22:30.050Z,2.30
2023-05-10T21:25:35.054Z,2.38
2023-05-10T21:28:40.163Z,2.37
2023-05-10T21:31:43.895Z,2.20
2023-05-10T21:34:47.578Z,2.03
2023-05-10T21:37:51.071Z,4.47
2023-05-10T21:40:56.251Z,3.88
2023-05-10T21:43:59.925Z,2.65
2023-05-10T21:47:03.899Z,2.10
2023-05-10T21:50:10.006Z,2.30
2023-05-10T21:53:13.642Z,2.20
2023-05-10T21:56:18.542Z,2.40
2023-05-10T21:59:22.483Z,2.57
2023-05-10T22:02:26.163Z,2.10
2023-05-10T22:05:30.067Z,2.63
2023-05-10T22:08:33.596Z,2.50
2023-05-10T22:11:38.678Z,2.10
2023-05-10T22:14:42.243Z,2.40
2023-05-10T22:17:45.986Z,2.58
2023-05-10T22:20:49.456Z,2.22
2023-05-10T22:23:53.135Z,2.63
2023-05-10T22:26:58.171Z,2.58
2023-05-10T22:30:01.906Z,2.40
2023-05-10T22:33:05.685Z,2.33
2023-05-10T22:36:09.830Z,2.58
2023-05-10T22:39:13.180Z,2.40
2023-05-10T22:42:18.349Z,2.15
2023-05-10T22:45:21.892Z,2.40
2023-05-10T22:48:25.557Z,2.50
2023-05-10T22:51:29.344Z,2.13
2023-05-10T22:54:34.913Z,2.03
2023-05-10T22:57:41.244Z,2.40
2023-05-10T23:00:45.036Z,2.90
2023-05-10T23:03:48.818Z,2.15
2023-05-10T23:06:53.590Z,2.83
2023-05-10T23:09:57.161Z,2.70
2023-05-10T23:13:02.241Z,2.40
2023-05-10T23:16:09.325Z,2.55
2023-05-10T23:19:13.177Z,2.38
2023-05-10T23:22:16.588Z,2.15
2023-05-10T23:25:20.462Z,2.45
2023-05-10T23:28:25.334Z,2.65
2023-05-10T23:31:29.404Z,1.90
2023-05-10T23:34:33.068Z,2.20
2023-05-10T23:37:37.224Z,2.45
2023-05-10T23:40:40.775Z,2.50
2023-05-10T23:43:46.204Z,2.30
2023-05-10T23:46:49.742Z,2.40
2023-05-10T23:49:53.714Z,2.30
2023-05-10T23:52:57.278Z,2.25
2023-05-10T23:56:00.926Z,2.45
2023-05-10T23:59:06.033Z,2.30
